This is the latest recevied weather packets stored in our database for station/object KQ4OSL. If no packets are shown the sender has not sent any weather packets the latest 10 day(s).
| Time | Temp. | Humidity | Pressure | Rain* | Wind** | Luminosity | Snow |
|---|---|---|---|---|---|---|---|
| 1777923463 | 25° C | 43% | 1016.9 hPa | 0 mm | - | 614 W/m² | - |
| 1777923161 | 25° C | 40% | 1016.8 hPa | 0 mm | - | 667 W/m² | - |
| 1777922859 | 24.44° C | 44% | 1016.9 hPa | 0 mm | - | 633 W/m² | - |
| 1777922557 | 25° C | 38% | 1017 hPa | 0 mm | - | 628 W/m² | - |
| 1777922255 | 23.89° C | 39% | 1017.2 hPa | 0 mm | - | 659 W/m² | - |
| 1777921952 | 23.89° C | 41% | 1017.3 hPa | 0 mm | - | 392 W/m² | - |
| 1777921647 | 25° C | 37% | 1017.2 hPa | 0 mm | - | 680 W/m² | - |
| 1777921344 | 23.89° C | 38% | 1017.4 hPa | 0 mm | - | 676 W/m² | - |
| 1777921040 | 24.44° C | 39% | 1017.3 hPa | 0 mm | - | 684 W/m² | - |
| 1777920737 | 24.44° C | 39% | 1017.4 hPa | 0 mm | - | 686 W/m² | - |
| 1777920433 | 24.44° C | 42% | 1017.7 hPa | 0 mm | - | 699 W/m² | - |
| 1777920129 | 23.89° C | 44% | 1017.6 hPa | 0 mm | - | 704 W/m² | - |
| 1777919825 | 24.44° C | 42% | 1017.5 hPa | 0 mm | - | 720 W/m² | - |
| 1777919522 | 25° C | 43% | 1017.6 hPa | 0 mm | - | 720 W/m² | - |
| 1777919220 | 23.89° C | 42% | 1017.8 hPa | 0 mm | - | 727 W/m² | - |
| 1777918917 | 23.89° C | 43% | 1017.7 hPa | 0 mm | - | 738 W/m² | - |
| 1777918615 | 23.89° C | 40% | 1017.9 hPa | 0 mm | - | 747 W/m² | - |
| 1777918312 | 23.33° C | 46% | 1017.9 hPa | 0 mm | - | 751 W/m² | - |
| 1777918011 | 23.33° C | 43% | 1018 hPa | 0 mm | - | 747 W/m² | - |
| 1777917709 | 22.78° C | 45% | 1017.9 hPa | 0 mm | - | 752 W/m² | - |
| 1777917406 | 23.33° C | 41% | 1018.4 hPa | 0 mm | - | 755 W/m² | - |
| 1777917103 | 22.78° C | 45% | 1018.3 hPa | 0 mm | - | 760 W/m² | - |
| 1777916801 | 23.33° C | 45% | 1018.4 hPa | 0 mm | - | 766 W/m² | - |
| 1777916497 | 23.89° C | 44% | 1018.5 hPa | 0 mm | - | 765 W/m² | - |
| 1777916195 | 23.89° C | 43% | 1018.3 hPa | 0 mm | - | 763 W/m² | - |
* Rain latest hour (hover to see other rain measurements)
** Current wind speed in m/s (hover to see current wind gust speed)